createdAt,value
2019-05-29T14:01:34.035Z,79.32
2019-05-29T14:04:06.967Z,78.84
2019-05-29T14:06:40.661Z,78.92
2019-05-29T14:09:13.140Z,78.36
2019-05-29T14:11:51.980Z,77.98
2019-05-29T14:14:24.962Z,77.98
2019-05-29T14:16:57.904Z,77.83
2019-05-29T14:19:30.163Z,77.81
2019-05-29T14:22:03.028Z,77.12
2019-05-29T14:24:35.878Z,76.78
2019-05-29T14:27:10.017Z,76.84
2019-05-29T14:29:49.290Z,76.61
2019-05-29T14:32:22.211Z,76.83
2019-05-29T14:35:04.303Z,76.71
2019-05-29T14:37:34.372Z,76.71
2019-05-29T14:40:07.968Z,77.57
2019-05-29T14:42:40.153Z,76.94
2019-05-29T14:45:13.418Z,76.87
2019-05-29T14:47:47.572Z,77.87
2019-05-29T14:50:20.399Z,77.30
2019-05-29T14:52:56.528Z,77.35
2019-05-29T14:58:52.065Z,76.74
2019-05-29T15:01:25.711Z,77.30
2019-05-29T15:03:58.545Z,76.77
2019-05-29T15:06:31.968Z,75.94
2019-05-29T15:09:05.530Z,75.36
2019-05-29T15:15:25.954Z,74.15
2019-05-29T15:18:08.722Z,73.22
2019-05-29T15:20:42.346Z,74.03
2019-05-29T15:27:02.626Z,74.58
2019-05-29T15:29:35.400Z,73.56
2019-05-29T15:32:08.291Z,74.01
2019-05-29T15:34:42.476Z,72.54
2019-05-29T15:37:22.159Z,73.65
2019-05-29T15:39:55.393Z,72.87
2019-05-29T15:42:28.515Z,73.28
2019-05-29T15:45:00.783Z,74.03
2019-05-29T15:47:33.546Z,73.72
2019-05-29T15:50:14.078Z,75.16
2019-05-29T15:52:47.257Z,75.34
2019-05-29T15:55:33.243Z,74.69
2019-05-29T15:57:57.568Z,74.38
2019-05-29T16:00:30.322Z,75.26
2019-05-29T16:03:03.051Z,74.79
2019-05-29T16:05:36.051Z,76.13
2019-05-29T16:08:09.821Z,75.12
2019-05-29T16:10:43.337Z,75.48
2019-05-29T16:13:17.425Z,75.44
2019-05-29T16:15:49.981Z,74.69
2019-05-29T16:18:29.151Z,74.36
2019-05-29T16:20:57.306Z,74.52
2019-05-29T16:23:35.813Z,74.45
2019-05-29T16:26:07.942Z,74.67
2019-05-29T16:28:41.260Z,74.31
2019-05-29T16:31:14.865Z,74.85
2019-05-29T16:33:47.746Z,74.75
2019-05-29T16:36:20.882Z,74.65
2019-05-29T16:38:55.206Z,74.12
2019-05-29T16:41:27.928Z,74.23
2019-05-29T16:44:00.924Z,74.32
2019-05-29T16:46:34.325Z,74.80
2019-05-29T16:49:07.489Z,75.67
2019-05-29T16:51:46.704Z,83.65
2019-05-29T16:54:19.438Z,84.06
2019-05-29T16:56:52.173Z,84.87
2019-05-29T16:59:29.735Z,84.19
2019-05-29T17:02:01.028Z,85.12
2019-05-29T17:04:33.794Z,85.76
2019-05-29T17:07:06.530Z,85.83
2019-05-29T17:09:39.404Z,84.79
2019-05-29T17:12:12.395Z,84.47
2019-05-29T17:14:45.490Z,83.81
2019-05-29T17:17:25.339Z,83.57
2019-05-29T17:19:58.326Z,83.64
2019-05-29T17:22:35.218Z,82.81
2019-05-29T17:25:08.893Z,82.55
2019-05-29T17:27:45.980Z,82.85
2019-05-29T17:30:22.944Z,82.51
2019-05-29T17:32:55.981Z,84.10
2019-05-29T17:35:28.143Z,83.63
2019-05-29T17:38:00.863Z,84.75
2019-05-29T17:40:33.850Z,84.61
2019-05-29T17:43:07.406Z,84.26
2019-05-29T17:45:40.259Z,85.73
2019-05-29T17:48:13.546Z,85.37
2019-05-29T17:50:46.216Z,86.59
2019-05-29T17:53:19.891Z,88.19
2019-05-29T17:55:52.961Z,87.57
2019-05-29T17:58:26.680Z,88.63
2019-05-29T18:00:59.130Z,87.47
2019-05-29T18:03:35.269Z,86.71
2019-05-29T18:06:16.207Z,87.71
2019-05-29T18:08:57.052Z,87.07
2019-05-29T18:11:31.265Z,87.42
2019-05-29T18:14:07.456Z,86.52
2019-05-29T18:16:37.958Z,87.77
2019-05-29T18:19:10.928Z,87.00
2019-05-29T18:21:43.987Z,86.89
2019-05-29T18:24:17.633Z,86.67
2019-05-29T18:26:54.051Z,86.66
2019-05-29T18:29:29.473Z,88.16
2019-05-29T18:32:06.551Z,87.59
2019-05-29T18:34:40.710Z,87.62
2019-05-29T18:37:13.257Z,88.19
2019-05-29T18:39:52.853Z,89.67
2019-05-29T18:42:27.233Z,89.11
2019-05-29T18:45:00.188Z,88.41
2019-05-29T18:47:33.432Z,90.33
2019-05-29T18:50:07.654Z,90.26
2019-05-29T18:52:52.503Z,90.50
2019-05-29T18:55:25.299Z,90.12
2019-05-29T19:00:38.044Z,90.42
2019-05-29T19:03:10.429Z,90.93
2019-05-29T19:05:42.673Z,89.95
2019-05-29T19:08:14.874Z,89.69
2019-05-29T19:10:47.571Z,89.71
2019-05-29T19:13:21.700Z,89.04
2019-05-29T19:15:54.360Z,89.12
2019-05-29T19:18:28.277Z,87.86
2019-05-29T19:21:01.367Z,87.32
2019-05-29T19:23:40.995Z,85.42
2019-05-29T19:26:14.297Z,87.39
2019-05-29T19:28:56.716Z,88.70
2019-05-29T19:31:29.530Z,86.75
2019-05-29T19:34:02.061Z,87.77
2019-05-29T19:36:35.318Z,87.61
2019-05-29T19:39:09.863Z,88.23
2019-05-29T19:41:49.654Z,88.22
2019-05-29T19:44:22.435Z,89.20
2019-05-29T19:46:55.072Z,89.53
2019-05-29T19:49:28.874Z,89.65
2019-05-29T19:52:01.587Z,88.99
2019-05-29T19:54:35.705Z,89.49
2019-05-29T19:57:08.994Z,90.26
2019-05-29T19:59:45.030Z,90.07
2019-05-29T20:02:17.601Z,90.02
2019-05-29T20:04:50.837Z,89.58
2019-05-29T20:07:23.614Z,89.71
2019-05-29T20:09:57.021Z,89.96
2019-05-29T20:12:29.533Z,89.48
2019-05-29T20:15:02.451Z,90.10
2019-05-29T20:17:36.251Z,89.75
2019-05-29T20:20:09.795Z,90.16
2019-05-29T20:22:42.708Z,90.83
2019-05-29T20:25:15.986Z,89.71
2019-05-29T20:27:49.267Z,90.55
2019-05-29T20:30:22.717Z,89.36
2019-05-29T20:32:55.773Z,89.83
2019-05-29T20:35:40.575Z,89.56
2019-05-29T20:38:19.712Z,89.84
2019-05-29T20:40:52.107Z,89.22
2019-05-29T20:43:31.654Z,88.86
2019-05-29T20:46:11.170Z,88.35
2019-05-29T20:48:44.325Z,89.18
2019-05-29T20:51:16.729Z,89.74
2019-05-29T20:53:49.723Z,89.07
2019-05-29T20:56:21.856Z,88.90
2019-05-29T20:59:02.778Z,88.80
2019-05-29T21:01:43.015Z,90.12
2019-05-29T21:04:09.523Z,90.07
2019-05-29T21:06:50.055Z,90.07
2019-05-29T21:09:23.377Z,88.80
2019-05-29T21:11:56.493Z,89.55
2019-05-29T21:14:29.294Z,89.18
2019-05-29T21:17:02.201Z,89.45
2019-05-29T21:19:36.456Z,89.53
2019-05-29T21:22:09.090Z,89.77
2019-05-29T21:25:00.095Z,90.14
2019-05-29T21:27:25.794Z,90.02
2019-05-29T21:29:58.631Z,89.91
2019-05-29T21:32:31.575Z,90.94
2019-05-29T21:35:08.425Z,89.61
2019-05-29T21:37:42.375Z,90.51
2019-05-29T21:40:15.448Z,90.36
2019-05-29T21:42:48.274Z,90.29
2019-05-29T21:45:20.672Z,89.88
2019-05-29T21:47:53.482Z,90.60
2019-05-29T21:50:25.910Z,90.75
2019-05-29T21:52:59.614Z,90.46
2019-05-29T21:55:32.250Z,90.03
2019-05-29T21:58:05.192Z,90.54
2019-05-29T22:00:48.198Z,90.10
2019-05-29T22:03:22.057Z,90.34
2019-05-29T22:05:54.606Z,90.78
2019-05-29T22:08:27.722Z,90.62
2019-05-29T22:11:01.519Z,90.08
2019-05-29T22:13:35.444Z,90.10
2019-05-29T22:16:08.029Z,90.15
2019-05-29T22:18:41.251Z,90.02
2019-05-29T22:21:13.993Z,89.82
2019-05-29T22:23:50.992Z,89.99
2019-05-29T22:26:23.571Z,89.93
2019-05-29T22:28:57.346Z,90.92
2019-05-29T22:31:30.653Z,90.61
